sensor_id;sensor_type;location;lat;lon;timestamp;pressure;altitude;pressure_sealevel;temperature;humidity
58769;BME280;44536;47.474;19.056;2023-02-13T00:02:13;102679.44;;;-1.08;96.70
58769;BME280;44536;47.474;19.056;2023-02-13T00:05:17;102676.81;;;-1.10;98.25
58769;BME280;44536;47.474;19.056;2023-02-13T00:08:19;102675.88;;;-1.18;98.35
58769;BME280;44536;47.474;19.056;2023-02-13T00:11:21;102676.59;;;-1.33;100.00
58769;BME280;44536;47.474;19.056;2023-02-13T00:14:24;102684.41;;;-1.31;100.00
58769;BME280;44536;47.474;19.056;2023-02-13T00:17:26;102684.37;;;-1.34;100.00
58769;BME280;44536;47.474;19.056;2023-02-13T00:20:29;102693.03;;;-1.37;100.00
58769;BME280;44536;47.474;19.056;2023-02-13T00:23:32;102687.72;;;-1.47;100.00
58769;BME280;44536;47.474;19.056;2023-02-13T00:26:35;102695.44;;;-1.53;100.00
58769;BME280;44536;47.474;19.056;2023-02-13T00:29:38;102701.50;;;-1.54;100.00
58769;BME280;44536;47.474;19.056;2023-02-13T00:32:40;102699.75;;;-1.58;100.00
58769;BME280;44536;47.474;19.056;2023-02-13T00:35:43;102691.00;;;-1.67;100.00
58769;BME280;44536;47.474;19.056;2023-02-13T00:38:46;102699.66;;;-1.68;100.00
58769;BME280;44536;47.474;19.056;2023-02-13T00:41:49;102698.75;;;-1.71;100.00
58769;BME280;44536;47.474;19.056;2023-02-13T00:44:51;102690.03;;;-1.73;100.00
58769;BME280;44536;47.474;19.056;2023-02-13T00:47:54;102697.87;;;-1.70;100.00
58769;BME280;44536;47.474;19.056;2023-02-13T00:50:56;102698.59;;;-1.83;100.00
58769;BME280;44536;47.474;19.056;2023-02-13T00:54:00;102692.59;;;-1.78;100.00
58769;BME280;44536;47.474;19.056;2023-02-13T00:57:02;102686.47;;;-1.83;100.00
58769;BME280;44536;47.474;19.056;2023-02-13T01:00:05;102687.28;;;-1.87;100.00
58769;BME280;44536;47.474;19.056;2023-02-13T01:03:08;102682.03;;;-1.90;100.00
58769;BME280;44536;47.474;19.056;2023-02-13T01:06:11;102679.41;;;-1.93;100.00
58769;BME280;44536;47.474;19.056;2023-02-13T01:09:13;102679.44;;;-1.88;100.00
58769;BME280;44536;47.474;19.056;2023-02-13T01:12:16;102676.66;;;-2.04;100.00
58769;BME280;44536;47.474;19.056;2023-02-13T01:15:18;102672.34;;;-2.03;100.00
58769;BME280;44536;47.474;19.056;2023-02-13T01:18:23;102680.13;;;-2.03;100.00
58769;BME280;44536;47.474;19.056;2023-02-13T01:21:25;102680.97;;;-2.06;100.00
58769;BME280;44536;47.474;19.056;2023-02-13T01:24:27;102657.63;;;-2.01;100.00
58769;BME280;44536;47.474;19.056;2023-02-13T01:27:32;102654.97;;;-2.09;100.00
58769;BME280;44536;47.474;19.056;2023-02-13T01:30:35;102667.88;;;-2.15;100.00
58769;BME280;44536;47.474;19.056;2023-02-13T01:33:37;102673.06;;;-2.16;100.00
58769;BME280;44536;47.474;19.056;2023-02-13T01:36:40;102666.12;;;-2.16;100.00
58769;BME280;44536;47.474;19.056;2023-02-13T01:39:43;102665.22;;;-2.18;100.00
58769;BME280;44536;47.474;19.056;2023-02-13T01:42:46;102668.62;;;-2.23;100.00
58769;BME280;44536;47.474;19.056;2023-02-13T01:45:54;102666.19;;;-2.11;100.00
58769;BME280;44536;47.474;19.056;2023-02-13T01:49:03;102656.59;;;-2.15;100.00
58769;BME280;44536;47.474;19.056;2023-02-13T01:52:08;102657.41;;;-2.21;100.00
58769;BME280;44536;47.474;19.056;2023-02-13T01:55:13;102658.31;;;-2.17;100.00
58769;BME280;44536;47.474;19.056;2023-02-13T01:58:20;102663.59;;;-2.11;100.00
58769;BME280;44536;47.474;19.056;2023-02-13T02:01:25;102658.41;;;-2.11;100.00
58769;BME280;44536;47.474;19.056;2023-02-13T02:04:33;102662.69;;;-2.13;100.00
58769;BME280;44536;47.474;19.056;2023-02-13T02:07:39;102655.72;;;-2.17;100.00
58769;BME280;44536;47.474;19.056;2023-02-13T02:10:43;102659.09;;;-2.23;100.00
58769;BME280;44536;47.474;19.056;2023-02-13T02:13:46;102654.78;;;-2.22;100.00
58769;BME280;44536;47.474;19.056;2023-02-13T02:16:51;102653.06;;;-2.20;100.00
58769;BME280;44536;47.474;19.056;2023-02-13T02:23:31;102649.81;;;-2.03;100.00
58769;BME280;44536;47.474;19.056;2023-02-13T02:43:12;102653.59;;;-1.76;100.00
58769;BME280;44536;47.474;19.056;2023-02-13T02:46:23;102642.44;;;-1.68;100.00
58769;BME280;44536;47.474;19.056;2023-02-13T02:49:31;102651.13;;;-1.65;100.00
58769;BME280;44536;47.474;19.056;2023-02-13T02:56:19;102652.69;;;-1.80;100.00
58769;BME280;44536;47.474;19.056;2023-02-13T02:59:24;102650.03;;;-1.84;100.00
58769;BME280;44536;47.474;19.056;2023-02-13T03:02:47;102651.72;;;-1.89;100.00
58769;BME280;44536;47.474;19.056;2023-02-13T03:06:20;102651.56;;;-2.02;100.00
58769;BME280;44536;47.474;19.056;2023-02-13T03:09:29;102648.00;;;-2.10;100.00
58769;BME280;44536;47.474;19.056;2023-02-13T03:13:00;102652.31;;;-2.12;100.00
58769;BME280;44536;47.474;19.056;2023-02-13T03:16:24;102654.00;;;-2.15;100.00
58769;BME280;44536;47.474;19.056;2023-02-13T03:23:20;102653.00;;;-2.25;100.00
58769;BME280;44536;47.474;19.056;2023-02-13T03:30:02;102644.66;;;-2.00;100.00
58769;BME280;44536;47.474;19.056;2023-02-13T03:37:01;102655.62;;;-2.23;100.00
58769;BME280;44536;47.474;19.056;2023-02-13T03:41:35;102650.41;;;-2.25;100.00
58769;BME280;44536;47.474;19.056;2023-02-13T03:47:29;102637.63;;;-2.08;100.00
58769;BME280;44536;47.474;19.056;2023-02-13T03:50:32;102640.25;;;-2.04;100.00
58769;BME280;44536;47.474;19.056;2023-02-13T03:53:35;102636.97;;;-1.89;100.00
58769;BME280;44536;47.474;19.056;2023-02-13T03:56:40;102637.00;;;-1.86;100.00
58769;BME280;44536;47.474;19.056;2023-02-13T04:00:05;102637.06;;;-1.83;100.00
58769;BME280;44536;47.474;19.056;2023-02-13T04:03:19;102641.53;;;-1.70;100.00
58769;BME280;44536;47.474;19.056;2023-02-13T04:06:29;102638.97;;;-1.67;100.00
58769;BME280;44536;47.474;19.056;2023-02-13T04:09:36;102639.00;;;-1.65;100.00
58769;BME280;44536;47.474;19.056;2023-02-13T04:19:06;102650.03;;;-1.84;100.00
58769;BME280;44536;47.474;19.056;2023-02-13T04:22:11;102649.34;;;-1.68;100.00
58769;BME280;44536;47.474;19.056;2023-02-13T04:25:16;102645.88;;;-1.69;100.00
58769;BME280;44536;47.474;19.056;2023-02-13T04:28:18;102640.69;;;-1.67;100.00
58769;BME280;44536;47.474;19.056;2023-02-13T04:31:21;102641.53;;;-1.70;100.00
58769;BME280;44536;47.474;19.056;2023-02-13T04:34:23;102642.56;;;-1.52;100.00
58769;BME280;44536;47.474;19.056;2023-02-13T04:37:26;102637.97;;;-1.79;100.00
58769;BME280;44536;47.474;19.056;2023-02-13T04:40:29;102642.16;;;-1.92;100.00
58769;BME280;44536;47.474;19.056;2023-02-13T04:43:31;102631.78;;;-1.89;100.00
58769;BME280;44536;47.474;19.056;2023-02-13T04:46:33;102630.88;;;-1.91;100.00
58769;BME280;44536;47.474;19.056;2023-02-13T04:49:36;102632.66;;;-1.88;100.00
58769;BME280;44536;47.474;19.056;2023-02-13T04:52:38;102629.22;;;-1.86;100.00
58769;BME280;44536;47.474;19.056;2023-02-13T04:55:41;102625.63;;;-1.95;100.00
58769;BME280;44536;47.474;19.056;2023-02-13T04:58:43;102625.56;;;-2.02;100.00
58769;BME280;44536;47.474;19.056;2023-02-13T05:01:45;102621.19;;;-2.04;100.00
58769;BME280;44536;47.474;19.056;2023-02-13T05:04:48;102620.25;;;-2.12;100.00
58769;BME280;44536;47.474;19.056;2023-02-13T05:07:51;102620.22;;;-2.15;100.00
58769;BME280;44536;47.474;19.056;2023-02-13T05:10:53;102628.12;;;-2.05;100.00
58769;BME280;44536;47.474;19.056;2023-02-13T05:13:56;102624.62;;;-2.10;100.00
58769;BME280;44536;47.474;19.056;2023-02-13T05:16:59;102622.75;;;-2.20;100.00
58769;BME280;44536;47.474;19.056;2023-02-13T05:20:02;102620.06;;;-2.27;100.00
58769;BME280;44536;47.474;19.056;2023-02-13T05:23:04;102617.41;;;-2.30;100.00
58769;BME280;44536;47.474;19.056;2023-02-13T05:26:25;102606.13;;;-2.34;100.00
58769;BME280;44536;47.474;19.056;2023-02-13T05:29:27;102617.28;;;-2.41;100.00
58769;BME280;44536;47.474;19.056;2023-02-13T05:32:30;102619.75;;;-2.50;100.00
58769;BME280;44536;47.474;19.056;2023-02-13T05:35:32;102604.09;;;-2.55;100.00
58769;BME280;44536;47.474;19.056;2023-02-13T05:38:35;102606.69;;;-2.56;100.00
58769;BME280;44536;47.474;19.056;2023-02-13T05:41:37;102606.69;;;-2.56;100.00
58769;BME280;44536;47.474;19.056;2023-02-13T05:44:39;102611.97;;;-2.49;100.00
58769;BME280;44536;47.474;19.056;2023-02-13T05:47:42;102616.16;;;-2.58;100.00
58769;BME280;44536;47.474;19.056;2023-02-13T05:50:45;102620.47;;;-2.62;100.00
58769;BME280;44536;47.474;19.056;2023-02-13T05:53:48;102622.22;;;-2.58;100.00
58769;BME280;44536;47.474;19.056;2023-02-13T05:56:51;102620.50;;;-2.57;100.00
58769;BME280;44536;47.474;19.056;2023-02-13T05:59:53;102624.88;;;-2.55;100.00
58769;BME280;44536;47.474;19.056;2023-02-13T06:02:56;102615.38;;;-2.53;100.00
58769;BME280;44536;47.474;19.056;2023-02-13T06:05:58;102619.00;;;-2.42;100.00
58769;BME280;44536;47.474;19.056;2023-02-13T06:09:01;102629.63;;;-2.25;100.00
58769;BME280;44536;47.474;19.056;2023-02-13T06:12:03;102633.84;;;-2.33;100.00
58769;BME280;44536;47.474;19.056;2023-02-13T06:15:06;102640.81;;;-2.30;100.00
58769;BME280;44536;47.474;19.056;2023-02-13T06:18:10;102651.31;;;-2.21;100.00
58769;BME280;44536;47.474;19.056;2023-02-13T06:21:12;102665.31;;;-2.12;100.00
58769;BME280;44536;47.474;19.056;2023-02-13T06:24:14;102648.09;;;-2.01;100.00
58769;BME280;44536;47.474;19.056;2023-02-13T06:27:17;102656.87;;;-1.92;100.00
58769;BME280;44536;47.474;19.056;2023-02-13T06:30:19;102653.59;;;-1.76;100.00
58769;BME280;44536;47.474;19.056;2023-02-13T06:33:22;102657.44;;;-1.41;100.00
58769;BME280;44536;47.474;19.056;2023-02-13T06:36:25;102654.31;;;-0.98;99.00
58769;BME280;44536;47.474;19.056;2023-02-13T06:39:27;102669.19;;;-0.87;96.36
58769;BME280;44536;47.474;19.056;2023-02-13T06:42:29;102663.22;;;-0.71;96.41
58769;BME280;44536;47.474;19.056;2023-02-13T06:45:32;102658.16;;;-0.52;97.09
58769;BME280;44536;47.474;19.056;2023-02-13T06:48:35;102658.50;;;0.24;95.30
58769;BME280;44536;47.474;19.056;2023-02-13T06:51:38;102655.12;;;0.77;91.75
58769;BME280;44536;47.474;19.056;2023-02-13T06:54:44;102655.97;;;0.68;90.53
58769;BME280;44536;47.474;19.056;2023-02-13T06:57:49;102655.94;;;0.48;90.25
58769;BME280;44536;47.474;19.056;2023-02-13T07:00:52;102657.59;;;0.16;89.84
58769;BME280;44536;47.474;19.056;2023-02-13T07:03:56;102659.28;;;0.06;90.13
58769;BME280;44536;47.474;19.056;2023-02-13T07:07:01;102665.44;;;0.25;90.30
58769;BME280;44536;47.474;19.056;2023-02-13T07:10:05;102664.50;;;0.09;89.28
58769;BME280;44536;47.474;19.056;2023-02-13T07:13:08;102665.38;;;0.08;89.52
58769;BME280;44536;47.474;19.056;2023-02-13T07:16:11;102670.69;;;0.32;89.58
58769;BME280;44536;47.474;19.056;2023-02-13T07:19:14;102669.84;;;0.40;89.25
58769;BME280;44536;47.474;19.056;2023-02-13T07:22:16;102676.81;;;0.42;89.10
58769;BME280;44536;47.474;19.056;2023-02-13T07:25:20;102673.34;;;0.54;86.98
58769;BME280;44536;47.474;19.056;2023-02-13T07:28:23;102669.88;;;0.59;86.96
58769;BME280;44536;47.474;19.056;2023-02-13T07:31:26;102669.00;;;0.60;86.60
58769;BME280;44536;47.474;19.056;2023-02-13T07:34:28;102674.25;;;0.79;85.99
58769;BME280;44536;47.474;19.056;2023-02-13T07:37:52;102669.06;;;0.85;85.05
58769;BME280;44536;47.474;19.056;2023-02-13T07:41:02;102669.94;;;0.91;84.99
58769;BME280;44536;47.474;19.056;2023-02-13T07:44:05;102675.13;;;0.76;84.18
58769;BME280;44536;47.474;19.056;2023-02-13T07:47:07;102670.78;;;0.78;84.51
58769;BME280;44536;47.474;19.056;2023-02-13T07:50:11;102681.25;;;0.99;83.51
58769;BME280;44536;47.474;19.056;2023-02-13T07:53:13;102673.41;;;1.10;82.64
58769;BME280;44536;47.474;19.056;2023-02-13T07:56:16;102681.22;;;1.24;82.24
58769;BME280;44536;47.474;19.056;2023-02-13T07:59:19;102695.16;;;1.24;81.84
58769;BME280;44536;47.474;19.056;2023-02-13T08:02:22;102689.06;;;1.21;81.82
58769;BME280;44536;47.474;19.056;2023-02-13T08:05:25;102686.47;;;1.18;81.47
58769;BME280;44536;47.474;19.056;2023-02-13T08:08:27;102688.22;;;1.25;81.84
58769;BME280;44536;47.474;19.056;2023-02-13T08:11:31;102689.06;;;1.24;81.11
58769;BME280;44536;47.474;19.056;2023-02-13T08:14:53;102691.69;;;1.33;81.21
58769;BME280;44536;47.474;19.056;2023-02-13T08:17:55;102688.19;;;1.51;80.64
58769;BME280;44536;47.474;19.056;2023-02-13T08:21:03;102682.97;;;1.54;80.21
58769;BME280;44536;47.474;19.056;2023-02-13T08:24:06;102679.50;;;1.40;80.71
58769;BME280;44536;47.474;19.056;2023-02-13T08:27:12;102676.00;;;1.54;80.07
58769;BME280;44536;47.474;19.056;2023-02-13T08:30:16;102686.41;;;1.66;80.00
58769;BME280;44536;47.474;19.056;2023-02-13T08:33:18;102686.38;;;1.68;78.59
58769;BME280;44536;47.474;19.056;2023-02-13T08:36:21;102670.66;;;1.82;78.04
58769;BME280;44536;47.474;19.056;2023-02-13T08:39:24;102665.38;;;1.97;75.51
58769;BME280;44536;47.474;19.056;2023-02-13T08:42:26;102666.28;;;1.90;75.73
58769;BME280;44536;47.474;19.056;2023-02-13T08:45:29;102667.16;;;1.93;75.80
58769;BME280;44536;47.474;19.056;2023-02-13T08:48:35;102661.88;;;2.06;74.56
58769;BME280;44536;47.474;19.056;2023-02-13T08:51:37;102663.53;;;2.19;74.15
58769;BME280;44536;47.474;19.056;2023-02-13T08:54:40;102661.78;;;2.18;74.57
58769;BME280;44536;47.474;19.056;2023-02-13T08:57:42;102667.81;;;2.33;73.22
58769;BME280;44536;47.474;19.056;2023-02-13T09:00:44;102670.44;;;2.35;73.78
58769;BME280;44536;47.474;19.056;2023-02-13T09:03:47;102674.75;;;2.48;73.43
58769;BME280;44536;47.474;19.056;2023-02-13T09:06:49;102663.34;;;2.54;73.23
58769;BME280;44536;47.474;19.056;2023-02-13T09:09:52;102667.59;;;2.70;72.60
58769;BME280;44536;47.474;19.056;2023-02-13T09:12:54;102668.38;;;2.83;71.06
58769;BME280;44536;47.474;19.056;2023-02-13T09:15:58;102668.34;;;2.89;71.32
58769;BME280;44536;47.474;19.056;2023-02-13T09:19:01;102663.84;;;3.06;69.61
58769;BME280;44536;47.474;19.056;2023-02-13T09:22:05;102666.38;;;3.15;69.32
58769;BME280;44536;47.474;19.056;2023-02-13T09:25:09;102670.59;;;3.30;68.62
58769;BME280;44536;47.474;19.056;2023-02-13T09:28:12;102665.41;;;3.25;69.38
58769;BME280;44536;47.474;19.056;2023-02-13T09:31:17;102665.28;;;3.39;67.84
58769;BME280;44536;47.474;19.056;2023-02-13T09:34:19;102662.66;;;3.41;68.50
58769;BME280;44536;47.474;19.056;2023-02-13T09:37:22;102667.78;;;3.53;68.21
58769;BME280;44536;47.474;19.056;2023-02-13T09:40:55;102672.75;;;3.77;67.25
58769;BME280;44536;47.474;19.056;2023-02-13T09:44:09;102670.81;;;3.94;66.38
58769;BME280;44536;47.474;19.056;2023-02-13T09:47:41;102658.47;;;4.01;66.36
58769;BME280;44536;47.474;19.056;2023-02-13T09:50:44;102655.66;;;4.76;64.16
58769;BME280;44536;47.474;19.056;2023-02-13T09:53:53;102658.84;;;5.47;60.94
58769;BME280;44536;47.474;19.056;2023-02-13T09:57:00;102645.84;;;5.83;59.72
58769;BME280;44536;47.474;19.056;2023-02-13T10:03:22;102651.16;;;7.34;56.23
58769;BME280;44536;47.474;19.056;2023-02-13T10:06:38;102643.81;;;8.92;53.32
58769;BME280;44536;47.474;19.056;2023-02-13T10:10:05;102637.94;;;10.54;46.98
58769;BME280;44536;47.474;19.056;2023-02-13T10:16:29;102633.63;;;12.34;43.12
58769;BME280;44536;47.474;19.056;2023-02-13T10:19:39;102624.44;;;13.12;40.99
58769;BME280;44536;47.474;19.056;2023-02-13T10:22:48;102616.00;;;13.71;37.67
58769;BME280;44536;47.474;19.056;2023-02-13T10:26:00;102624.06;;;13.19;38.16
58769;BME280;44536;47.474;19.056;2023-02-13T10:29:05;102619.16;;;12.40;39.49
58769;BME280;44536;47.474;19.056;2023-02-13T10:32:41;102618.38;;;12.19;40.47
58769;BME280;44536;47.474;19.056;2023-02-13T10:36:05;102619.72;;;11.70;41.15
58769;BME280;44536;47.474;19.056;2023-02-13T10:39:23;102614.62;;;11.85;41.35
58769;BME280;44536;47.474;19.056;2023-02-13T10:42:38;102609.31;;;13.12;38.78
58769;BME280;44536;47.474;19.056;2023-02-13T10:46:04;102604.59;;;12.83;38.43
58769;BME280;44536;47.474;19.056;2023-02-13T10:52:47;102602.13;;;9.97;44.79
58769;BME280;44536;47.474;19.056;2023-02-13T10:56:01;102602.19;;;11.66;40.96
58769;BME280;44536;47.474;19.056;2023-02-13T10:59:27;102590.50;;;11.70;41.10
58769;BME280;44536;47.474;19.056;2023-02-13T11:02:32;102582.50;;;10.26;44.06
58769;BME280;44536;47.474;19.056;2023-02-13T11:05:37;102575.84;;;10.38;44.24
58769;BME280;44536;47.474;19.056;2023-02-13T11:08:42;102573.44;;;11.36;42.84
58769;BME280;44536;47.474;19.056;2023-02-13T11:11:46;102572.44;;;11.78;41.63
58769;BME280;44536;47.474;19.056;2023-02-13T11:14:58;102564.25;;;11.82;41.66
58769;BME280;44536;47.474;19.056;2023-02-13T11:18:34;102552.91;;;11.79;41.51
58769;BME280;44536;47.474;19.056;2023-02-13T11:21:38;102554.16;;;13.14;38.21
58769;BME280;44536;47.474;19.056;2023-02-13T11:24:51;102550.84;;;13.93;36.81
58769;BME280;44536;47.474;19.056;2023-02-13T11:28:07;102548.59;;;14.16;36.21
58769;BME280;44536;47.474;19.056;2023-02-13T11:31:23;102548.34;;;14.82;35.41
58769;BME280;44536;47.474;19.056;2023-02-13T11:34:29;102537.50;;;13.77;35.96
58769;BME280;44536;47.474;19.056;2023-02-13T11:37:32;102531.09;;;16.43;33.10
58769;BME280;44536;47.474;19.056;2023-02-13T11:40:35;102529.00;;;17.51;30.22
58769;BME280;44536;47.474;19.056;2023-02-13T11:46:48;102518.91;;;14.54;34.44
58769;BME280;44536;47.474;19.056;2023-02-13T11:49:51;102518.25;;;16.75;31.85
58769;BME280;44536;47.474;19.056;2023-02-13T11:53:01;102513.84;;;13.86;36.18
58769;BME280;44536;47.474;19.056;2023-02-13T11:56:13;102508.47;;;13.39;37.29
58769;BME280;44536;47.474;19.056;2023-02-13T11:59:16;102504.87;;;16.87;31.48
58769;BME280;44536;47.474;19.056;2023-02-13T12:02:27;102509.31;;;17.14;30.95
58769;BME280;44536;47.474;19.056;2023-02-13T12:05:30;102512.88;;;16.08;31.98
58769;BME280;44536;47.474;19.056;2023-02-13T12:08:35;102507.75;;;15.91;32.70
58769;BME280;44536;47.474;19.056;2023-02-13T12:11:43;102507.13;;;15.73;33.18
58769;BME280;44536;47.474;19.056;2023-02-13T12:14:46;102505.44;;;14.85;34.99
58769;BME280;44536;47.474;19.056;2023-02-13T12:18:18;102494.72;;;15.44;34.25
58769;BME280;44536;47.474;19.056;2023-02-13T12:28:15;102483.56;;;16.19;32.70
58769;BME280;44536;47.474;19.056;2023-02-13T12:41:24;102476.12;;;14.24;36.78
58769;BME280;44536;47.474;19.056;2023-02-13T12:44:36;102459.06;;;13.81;37.00
58769;BME280;44536;47.474;19.056;2023-02-13T13:01:41;102434.88;;;11.83;41.59
58769;BME280;44536;47.474;19.056;2023-02-13T13:05:08;102420.37;;;9.70;46.64
58769;BME280;44536;47.474;19.056;2023-02-13T13:15:17;102431.16;;;10.71;45.24
58769;BME280;44536;47.474;19.056;2023-02-13T13:18:38;102420.03;;;10.63;45.17
58769;BME280;44536;47.474;19.056;2023-02-13T13:22:18;102428.38;;;10.12;46.71
58769;BME280;44536;47.474;19.056;2023-02-13T13:28:48;102423.41;;;9.60;47.77
58769;BME280;44536;47.474;19.056;2023-02-13T13:31:55;102419.97;;;9.12;49.08
58769;BME280;44536;47.474;19.056;2023-02-13T13:34:58;102421.59;;;9.16;51.77
58769;BME280;44536;47.474;19.056;2023-02-13T13:44:53;102423.22;;;9.65;51.05
58769;BME280;44536;47.474;19.056;2023-02-13T13:51:41;102412.13;;;9.55;52.08
58769;BME280;44536;47.474;19.056;2023-02-13T13:54:43;102409.94;;;10.71;49.79
58769;BME280;44536;47.474;19.056;2023-02-13T14:01:18;102411.72;;;11.47;46.56
58769;BME280;44536;47.474;19.056;2023-02-13T14:07:39;102403.00;;;12.69;43.45
58769;BME280;44536;47.474;19.056;2023-02-13T14:13:50;102410.31;;;11.78;44.72
58769;BME280;44536;47.474;19.056;2023-02-13T14:17:03;102408.44;;;11.61;46.07
58769;BME280;44536;47.474;19.056;2023-02-13T14:20:21;102419.09;;;11.42;46.07
58769;BME280;44536;47.474;19.056;2023-02-13T14:26:40;102421.03;;;10.60;48.90
58769;BME280;44536;47.474;19.056;2023-02-13T14:29:46;102420.81;;;10.65;48.80
58769;BME280;44536;47.474;19.056;2023-02-13T14:32:49;102420.28;;;10.57;49.03
58769;BME280;44536;47.474;19.056;2023-02-13T14:36:06;102422.78;;;9.98;51.14
58769;BME280;44536;47.474;19.056;2023-02-13T14:39:26;102420.09;;;9.77;51.63
58769;BME280;44536;47.474;19.056;2023-02-13T14:42:29;102418.47;;;8.81;54.39
58769;BME280;44536;47.474;19.056;2023-02-13T14:45:47;102416.84;;;8.26;56.52
58769;BME280;44536;47.474;19.056;2023-02-13T14:52:21;102420.91;;;8.10;57.99
58769;BME280;44536;47.474;19.056;2023-02-13T14:55:32;102420.84;;;7.57;59.70
58769;BME280;44536;47.474;19.056;2023-02-13T14:58:45;102427.19;;;7.51;60.93
58769;BME280;44536;47.474;19.056;2023-02-13T15:01:55;102428.31;;;7.43;61.58
58769;BME280;44536;47.474;19.056;2023-02-13T15:05:12;102416.81;;;7.45;61.85
58769;BME280;44536;47.474;19.056;2023-02-13T15:08:19;102427.56;;;7.10;63.33
58769;BME280;44536;47.474;19.056;2023-02-13T15:11:40;102413.97;;;6.92;64.70
58769;BME280;44536;47.474;19.056;2023-02-13T15:14:44;102409.25;;;6.74;65.64
58769;BME280;44536;47.474;19.056;2023-02-13T15:17:46;102418.34;;;6.62;66.73
58769;BME280;44536;47.474;19.056;2023-02-13T15:20:53;102417.47;;;6.62;66.88
58769;BME280;44536;47.474;19.056;2023-02-13T15:23:56;102426.66;;;6.47;67.78
58769;BME280;44536;47.474;19.056;2023-02-13T15:27:05;102428.53;;;6.42;67.55
58769;BME280;44536;47.474;19.056;2023-02-13T15:30:23;102426.53;;;6.52;67.59
58769;BME280;44536;47.474;19.056;2023-02-13T15:36:40;102433.06;;;6.37;68.55
58769;BME280;44536;47.474;19.056;2023-02-13T15:39:43;102439.25;;;6.35;68.87
58769;BME280;44536;47.474;19.056;2023-02-13T15:42:45;102432.38;;;6.29;69.30
58769;BME280;44536;47.474;19.056;2023-02-13T15:45:47;102419.50;;;6.18;69.34
58769;BME280;44536;47.474;19.056;2023-02-13T15:48:52;102418.53;;;6.22;69.61
58769;BME280;44536;47.474;19.056;2023-02-13T15:52:04;102426.13;;;6.33;69.45
58769;BME280;44536;47.474;19.056;2023-02-13T15:55:20;102425.41;;;6.26;69.81
58769;BME280;44536;47.474;19.056;2023-02-13T15:58:27;102420.28;;;6.22;69.62
58769;BME280;44536;47.474;19.056;2023-02-13T16:01:31;102421.06;;;6.25;70.07
58769;BME280;44536;47.474;19.056;2023-02-13T16:04:34;102424.03;;;6.13;70.22
58769;BME280;44536;47.474;19.056;2023-02-13T16:07:51;102416.63;;;5.92;70.87
58769;BME280;44536;47.474;19.056;2023-02-13T16:11:20;102416.81;;;5.83;71.17
58769;BME280;44536;47.474;19.056;2023-02-13T16:14:26;102429.97;;;5.83;71.88
58769;BME280;44536;47.474;19.056;2023-02-13T16:17:33;102427.34;;;5.83;72.10
58769;BME280;44536;47.474;19.056;2023-02-13T16:20:37;102425.41;;;5.92;71.58
58769;BME280;44536;47.474;19.056;2023-02-13T16:23:43;102424.38;;;5.98;71.02
58769;BME280;44536;47.474;19.056;2023-02-13T16:26:46;102437.63;;;5.95;71.28
58769;BME280;44536;47.474;19.056;2023-02-13T16:29:54;102428.81;;;5.96;70.96
58769;BME280;44536;47.474;19.056;2023-02-13T16:36:26;102422.31;;;5.72;71.84
58769;BME280;44536;47.474;19.056;2023-02-13T16:39:31;102412.91;;;5.63;72.24
58769;BME280;44536;47.474;19.056;2023-02-13T16:42:34;102417.28;;;5.63;72.50
58769;BME280;44536;47.474;19.056;2023-02-13T16:45:36;102418.38;;;5.54;72.97
58769;BME280;44536;47.474;19.056;2023-02-13T16:48:40;102415.09;;;5.43;73.33
58769;BME280;44536;47.474;19.056;2023-02-13T16:55:01;102404.44;;;5.09;74.87
58769;BME280;44536;47.474;19.056;2023-02-13T16:58:05;102411.50;;;5.07;74.91
58769;BME280;44536;47.474;19.056;2023-02-13T17:01:14;102407.06;;;5.09;75.11
58769;BME280;44536;47.474;19.056;2023-02-13T17:04:22;102414.03;;;5.12;75.12
58769;BME280;44536;47.474;19.056;2023-02-13T17:07:27;102405.56;;;4.97;75.83
58769;BME280;44536;47.474;19.056;2023-02-13T17:10:32;102408.00;;;5.07;75.73
58769;BME280;44536;47.474;19.056;2023-02-13T17:13:35;102401.53;;;5.21;75.09
58769;BME280;44536;47.474;19.056;2023-02-13T17:16:37;102398.56;;;5.38;74.36
58769;BME280;44536;47.474;19.056;2023-02-13T17:19:40;102387.75;;;5.50;74.20
58769;BME280;44536;47.474;19.056;2023-02-13T17:22:44;102387.72;;;5.52;74.11
58769;BME280;44536;47.474;19.056;2023-02-13T17:25:49;102377.09;;;5.56;73.47
58769;BME280;44536;47.474;19.056;2023-02-13T17:28:52;102377.31;;;5.47;73.61
58769;BME280;44536;47.474;19.056;2023-02-13T17:31:55;102380.88;;;5.45;74.22
58769;BME280;44536;47.474;19.056;2023-02-13T17:34:58;102378.06;;;5.52;73.68
58769;BME280;44536;47.474;19.056;2023-02-13T17:38:02;102385.00;;;5.56;73.69
58769;BME280;44536;47.474;19.056;2023-02-13T17:41:07;102386.56;;;5.63;74.27
58769;BME280;44536;47.474;19.056;2023-02-13T17:44:13;102387.38;;;5.67;73.32
58769;BME280;44536;47.474;19.056;2023-02-13T17:47:16;102377.81;;;5.63;73.82
58769;BME280;44536;47.474;19.056;2023-02-13T17:50:20;102380.47;;;5.61;73.53
58769;BME280;44536;47.474;19.056;2023-02-13T17:53:27;102376.53;;;5.79;72.70
58769;BME280;44536;47.474;19.056;2023-02-13T17:56:33;102364.91;;;5.52;73.80
58769;BME280;44536;47.474;19.056;2023-02-13T17:59:35;102360.09;;;5.32;75.33
58769;BME280;44536;47.474;19.056;2023-02-13T18:02:38;102355.22;;;5.16;75.64
58769;BME280;44536;47.474;19.056;2023-02-13T18:05:40;102360.09;;;4.92;76.42
58769;BME280;44536;47.474;19.056;2023-02-13T18:08:43;102354.44;;;4.69;77.55
58769;BME280;44536;47.474;19.056;2023-02-13T18:11:47;102363.53;;;4.53;78.90
58769;BME280;44536;47.474;19.056;2023-02-13T18:15:06;102359.47;;;4.35;79.68
58769;BME280;44536;47.474;19.056;2023-02-13T18:18:09;102348.34;;;4.21;80.32
58769;BME280;44536;47.474;19.056;2023-02-13T18:21:11;102353.78;;;4.13;80.94